sensor_id;sensor_type;location;lat;lon;timestamp;pressure;altitude;pressure_sealevel;temperature;humidity
22181;BME280;11256;50.830;12.834;2022-07-23T00:01:42;97685.25;;;25.06;43.17
22181;BME280;11256;50.830;12.834;2022-07-23T00:06:42;97708.16;;;25.03;44.45
22181;BME280;11256;50.830;12.834;2022-07-23T00:11:43;97702.53;;;24.96;43.45
22181;BME280;11256;50.830;12.834;2022-07-23T00:16:43;97707.22;;;24.92;43.65
22181;BME280;11256;50.830;12.834;2022-07-23T00:21:43;97701.97;;;24.87;43.93
22181;BME280;11256;50.830;12.834;2022-07-23T00:26:44;97692.69;;;24.76;44.03
22181;BME280;11256;50.830;12.834;2022-07-23T00:31:44;97675.50;;;24.67;44.10
22181;BME280;11256;50.830;12.834;2022-07-23T00:36:44;97673.50;;;24.64;44.26
22181;BME280;11256;50.830;12.834;2022-07-23T00:41:45;97661.91;;;24.58;44.40
22181;BME280;11256;50.830;12.834;2022-07-23T00:46:47;97652.63;;;24.51;44.37
22181;BME280;11256;50.830;12.834;2022-07-23T00:51:49;97659.81;;;24.52;44.59
22181;BME280;11256;50.830;12.834;2022-07-23T00:56:55;97635.03;;;24.40;44.95
22181;BME280;11256;50.830;12.834;2022-07-23T01:01:55;97637.81;;;24.40;44.99
22181;BME280;11256;50.830;12.834;2022-07-23T01:06:56;97628.59;;;24.32;45.32
22181;BME280;11256;50.830;12.834;2022-07-23T01:12:03;97595.00;;;24.11;45.61
22181;BME280;11256;50.830;12.834;2022-07-23T01:17:04;97607.06;;;24.22;45.30
22181;BME280;11256;50.830;12.834;2022-07-23T01:22:04;97600.66;;;24.18;45.53
22181;BME280;11256;50.830;12.834;2022-07-23T01:27:06;97608.84;;;24.11;45.76
22181;BME280;11256;50.830;12.834;2022-07-23T01:32:08;97610.75;;;24.07;45.79
22181;BME280;11256;50.830;12.834;2022-07-23T01:37:09;97582.44;;;23.95;45.77
22181;BME280;11256;50.830;12.834;2022-07-23T01:42:10;97573.13;;;23.84;45.44
22181;BME280;11256;50.830;12.834;2022-07-23T01:47:10;97575.47;;;23.82;46.13
22181;BME280;11256;50.830;12.834;2022-07-23T01:52:11;97567.41;;;23.73;46.45
22181;BME280;11256;50.830;12.834;2022-07-23T01:57:17;97565.31;;;23.67;46.11
22181;BME280;11256;50.830;12.834;2022-07-23T02:02:19;97563.88;;;23.54;46.25
22181;BME280;11256;50.830;12.834;2022-07-23T02:07:22;97569.34;;;23.50;46.93
22181;BME280;11256;50.830;12.834;2022-07-23T02:12:22;97570.00;;;23.44;46.33
22181;BME280;11256;50.830;12.834;2022-07-23T02:17:22;97557.66;;;23.38;46.71
22181;BME280;11256;50.830;12.834;2022-07-23T02:22:23;97573.78;;;23.36;46.53
22181;BME280;11256;50.830;12.834;2022-07-23T02:27:23;97571.31;;;23.31;46.59
22181;BME280;11256;50.830;12.834;2022-07-23T02:32:24;97569.59;;;23.23;46.52
22181;BME280;11256;50.830;12.834;2022-07-23T02:37:24;97566.66;;;23.16;46.76
22181;BME280;11256;50.830;12.834;2022-07-23T02:42:25;97554.19;;;23.06;46.66
22181;BME280;11256;50.830;12.834;2022-07-23T02:47:25;97566.13;;;23.10;46.86
22181;BME280;11256;50.830;12.834;2022-07-23T02:52:26;97558.94;;;23.06;47.35
22181;BME280;11256;50.830;12.834;2022-07-23T02:57:26;97549.34;;;23.00;47.24
22181;BME280;11256;50.830;12.834;2022-07-23T03:02:26;97552.13;;;23.00;47.15
22181;BME280;11256;50.830;12.834;2022-07-23T03:07:27;97556.75;;;22.96;47.29
22181;BME280;11256;50.830;12.834;2022-07-23T03:12:27;97567.41;;;22.94;47.51
22181;BME280;11256;50.830;12.834;2022-07-23T03:17:28;97546.72;;;22.88;47.46
22181;BME280;11256;50.830;12.834;2022-07-23T03:22:28;97548.97;;;22.82;47.80
22181;BME280;11256;50.830;12.834;2022-07-23T03:27:29;97567.97;;;22.84;48.14
22181;BME280;11256;50.830;12.834;2022-07-23T03:32:30;97574.28;;;22.84;48.03
22181;BME280;11256;50.830;12.834;2022-07-23T03:37:31;97574.38;;;22.88;48.81
22181;BME280;11256;50.830;12.834;2022-07-23T03:42:33;97572.31;;;22.85;48.82
22181;BME280;11256;50.830;12.834;2022-07-23T03:47:34;97554.19;;;22.68;49.28
22181;BME280;11256;50.830;12.834;2022-07-23T03:52:34;97548.09;;;22.59;49.54
22181;BME280;11256;50.830;12.834;2022-07-23T03:57:35;97547.81;;;22.64;49.58
22181;BME280;11256;50.830;12.834;2022-07-23T04:02:36;97543.94;;;22.50;49.23
22181;BME280;11256;50.830;12.834;2022-07-23T04:07:37;97546.59;;;22.46;52.15
22181;BME280;11256;50.830;12.834;2022-07-23T04:12:37;97531.69;;;22.35;49.44
22181;BME280;11256;50.830;12.834;2022-07-23T04:17:38;97547.91;;;22.37;49.49
22181;BME280;11256;50.830;12.834;2022-07-23T04:22:40;97567.16;;;22.49;49.73
22181;BME280;11256;50.830;12.834;2022-07-23T04:27:40;97574.38;;;22.38;49.83
22181;BME280;11256;50.830;12.834;2022-07-23T04:32:41;97590.59;;;22.39;50.21
22181;BME280;11256;50.830;12.834;2022-07-23T04:37:50;97602.28;;;22.33;49.35
22181;BME280;11256;50.830;12.834;2022-07-23T04:42:52;97588.66;;;22.40;50.24
22181;BME280;11256;50.830;12.834;2022-07-23T04:47:52;97620.81;;;22.48;50.62
22181;BME280;11256;50.830;12.834;2022-07-23T04:52:53;97651.56;;;22.46;52.70
22181;BME280;11256;50.830;12.834;2022-07-23T04:57:53;97641.31;;;22.47;52.67
22181;BME280;11256;50.830;12.834;2022-07-23T05:02:54;97610.50;;;22.45;52.72
22181;BME280;11256;50.830;12.834;2022-07-23T05:07:54;97613.16;;;22.41;52.90
22181;BME280;11256;50.830;12.834;2022-07-23T05:12:55;97626.34;;;22.48;53.17
22181;BME280;11256;50.830;12.834;2022-07-23T05:17:55;97618.50;;;22.34;53.64
22181;BME280;11256;50.830;12.834;2022-07-23T05:22:55;97634.00;;;22.39;53.38
22181;BME280;11256;50.830;12.834;2022-07-23T05:27:57;97637.31;;;22.44;52.79
22181;BME280;11256;50.830;12.834;2022-07-23T05:32:57;97632.22;;;22.31;53.80
22181;BME280;11256;50.830;12.834;2022-07-23T05:37:58;97626.63;;;22.27;52.56
22181;BME280;11256;50.830;12.834;2022-07-23T05:42:58;97643.09;;;22.24;52.42
22181;BME280;11256;50.830;12.834;2022-07-23T05:47:59;97657.59;;;22.21;52.21
22181;BME280;11256;50.830;12.834;2022-07-23T05:53:05;97665.97;;;22.24;52.02
22181;BME280;11256;50.830;12.834;2022-07-23T05:58:31;97684.53;;;22.24;52.14
22181;BME280;11256;50.830;12.834;2022-07-23T06:03:32;97681.94;;;22.31;51.50
22181;BME280;11256;50.830;12.834;2022-07-23T06:08:32;97680.41;;;22.33;51.56
22181;BME280;11256;50.830;12.834;2022-07-23T06:13:33;97697.91;;;22.37;50.97
22181;BME280;11256;50.830;12.834;2022-07-23T06:18:34;97690.66;;;22.33;51.80
22181;BME280;11256;50.830;12.834;2022-07-23T06:23:34;97689.06;;;22.32;50.92
22181;BME280;11256;50.830;12.834;2022-07-23T06:28:35;97697.06;;;22.37;51.57
22181;BME280;11256;50.830;12.834;2022-07-23T06:33:35;97693.63;;;22.40;51.49
22181;BME280;11256;50.830;12.834;2022-07-23T06:38:35;97692.03;;;22.39;50.95
22181;BME280;11256;50.830;12.834;2022-07-23T06:43:36;97702.59;;;22.37;52.36
22181;BME280;11256;50.830;12.834;2022-07-23T06:48:36;97701.44;;;22.38;51.38
22181;BME280;11256;50.830;12.834;2022-07-23T06:53:36;97708.31;;;22.44;53.97
22181;BME280;11256;50.830;12.834;2022-07-23T06:58:37;97714.13;;;22.54;52.43
22181;BME280;11256;50.830;12.834;2022-07-23T07:03:39;97702.91;;;22.63;51.96
22181;BME280;11256;50.830;12.834;2022-07-23T07:08:39;97697.28;;;22.59;51.67
22181;BME280;11256;50.830;12.834;2022-07-23T07:13:39;97701.19;;;22.74;54.47
22181;BME280;11256;50.830;12.834;2022-07-23T07:18:40;97696.72;;;22.85;53.16
22181;BME280;11256;50.830;12.834;2022-07-23T07:23:40;97687.13;;;22.98;51.78
22181;BME280;11256;50.830;12.834;2022-07-23T07:28:40;97673.50;;;23.05;53.83
22181;BME280;11256;50.830;12.834;2022-07-23T07:33:41;97681.78;;;23.58;53.87
22181;BME280;11256;50.830;12.834;2022-07-23T07:38:44;97682.78;;;24.30;51.95
22181;BME280;11256;50.830;12.834;2022-07-23T07:43:45;97685.56;;;24.75;52.08
22181;BME280;11256;50.830;12.834;2022-07-23T07:48:45;97688.03;;;25.06;52.22
22181;BME280;11256;50.830;12.834;2022-07-23T07:53:46;97691.56;;;25.62;51.99
22181;BME280;11256;50.830;12.834;2022-07-23T07:58:46;97680.44;;;26.28;51.54
22181;BME280;11256;50.830;12.834;2022-07-23T08:03:47;97691.47;;;27.08;50.31
22181;BME280;11256;50.830;12.834;2022-07-23T08:13:56;97676.09;;;28.17;47.96
22181;BME280;11256;50.830;12.834;2022-07-23T08:19:00;97686.41;;;28.13;46.16
22181;BME280;11256;50.830;12.834;2022-07-23T08:24:14;97674.34;;;27.77;46.11
22181;BME280;11256;50.830;12.834;2022-07-23T08:29:18;97676.56;;;27.44;46.14
22181;BME280;11256;50.830;12.834;2022-07-23T08:34:18;97697.59;;;27.27;46.18
22181;BME280;11256;50.830;12.834;2022-07-23T08:39:22;97683.88;;;27.05;46.47
22181;BME280;11256;50.830;12.834;2022-07-23T08:44:22;97688.97;;;26.96;46.66
22181;BME280;11256;50.830;12.834;2022-07-23T08:49:22;97698.25;;;27.14;47.17
22181;BME280;11256;50.830;12.834;2022-07-23T08:54:23;97700.06;;;27.50;46.48
22181;BME280;11256;50.830;12.834;2022-07-23T08:59:24;97711.06;;;28.00;46.85
22181;BME280;11256;50.830;12.834;2022-07-23T09:04:26;97724.78;;;28.75;45.92
22181;BME280;11256;50.830;12.834;2022-07-23T09:09:27;97721.56;;;29.40;45.58
22181;BME280;11256;50.830;12.834;2022-07-23T09:14:41;97734.25;;;29.83;43.58
22181;BME280;11256;50.830;12.834;2022-07-23T09:19:43;97753.78;;;29.90;42.95
22181;BME280;11256;50.830;12.834;2022-07-23T09:25:12;97735.00;;;29.94;43.04
22181;BME280;11256;50.830;12.834;2022-07-23T09:30:14;97739.91;;;29.58;41.93
22181;BME280;11256;50.830;12.834;2022-07-23T09:35:14;97735.09;;;29.52;42.98
22181;BME280;11256;50.830;12.834;2022-07-23T09:40:15;97750.28;;;29.47;42.24
22181;BME280;11256;50.830;12.834;2022-07-23T09:45:17;97760.66;;;29.68;43.03
22181;BME280;11256;50.830;12.834;2022-07-23T09:50:22;97740.66;;;29.73;42.35
22181;BME280;11256;50.830;12.834;2022-07-23T09:55:32;97733.53;;;29.65;41.92
22181;BME280;11256;50.830;12.834;2022-07-23T10:00:36;97761.00;;;29.80;42.36
22181;BME280;11256;50.830;12.834;2022-07-23T10:05:37;97755.75;;;29.96;42.03
22181;BME280;11256;50.830;12.834;2022-07-23T10:10:47;97767.75;;;30.00;42.45
22181;BME280;11256;50.830;12.834;2022-07-23T10:16:14;97763.75;;;29.98;41.88
22181;BME280;11256;50.830;12.834;2022-07-23T10:21:49;97778.19;;;29.86;42.00
22181;BME280;11256;50.830;12.834;2022-07-23T10:27:08;97774.25;;;29.66;41.61
22181;BME280;11256;50.830;12.834;2022-07-23T10:32:37;97777.00;;;29.52;42.02
22181;BME280;11256;50.830;12.834;2022-07-23T10:37:46;97786.25;;;29.42;41.47
22181;BME280;11256;50.830;12.834;2022-07-23T10:42:49;97777.47;;;29.26;42.33
22181;BME280;11256;50.830;12.834;2022-07-23T10:47:52;97775.88;;;29.11;42.36
22181;BME280;11256;50.830;12.834;2022-07-23T10:53:14;97742.72;;;28.92;42.63
22181;BME280;11256;50.830;12.834;2022-07-23T10:58:21;97778.22;;;28.74;43.38
22181;BME280;11256;50.830;12.834;2022-07-23T11:03:29;97802.91;;;28.58;44.15
22181;BME280;11256;50.830;12.834;2022-07-23T11:08:29;97797.22;;;28.37;45.04
22181;BME280;11256;50.830;12.834;2022-07-23T11:13:38;97789.97;;;28.18;44.61
22181;BME280;11256;50.830;12.834;2022-07-23T11:23:59;97800.72;;;28.13;45.08
22181;BME280;11256;50.830;12.834;2022-07-23T11:34:42;97797.00;;;27.84;45.85
22181;BME280;11256;50.830;12.834;2022-07-23T11:39:46;97784.25;;;27.80;46.27
22181;BME280;11256;50.830;12.834;2022-07-23T11:44:47;97795.41;;;27.80;46.58
22181;BME280;11256;50.830;12.834;2022-07-23T11:49:58;97802.66;;;27.95;45.89
22181;BME280;11256;50.830;12.834;2022-07-23T11:55:04;97792.28;;;27.99;45.95
22181;BME280;11256;50.830;12.834;2022-07-23T12:05:19;97794.03;;;28.28;46.03
22181;BME280;11256;50.830;12.834;2022-07-23T12:15:30;97788.56;;;28.63;45.88
22181;BME280;11256;50.830;12.834;2022-07-23T12:20:35;97795.75;;;28.85;45.85
22181;BME280;11256;50.830;12.834;2022-07-23T12:25:38;97796.59;;;29.03;45.51
22181;BME280;11256;50.830;12.834;2022-07-23T12:30:53;97803.38;;;29.30;45.85
22181;BME280;11256;50.830;12.834;2022-07-23T12:35:56;97789.41;;;29.30;44.91
22181;BME280;11256;50.830;12.834;2022-07-23T12:40:58;97782.63;;;29.41;44.59
22181;BME280;11256;50.830;12.834;2022-07-23T12:46:04;97790.63;;;29.64;44.71
22181;BME280;11256;50.830;12.834;2022-07-23T12:51:12;97798.16;;;29.81;44.69
22181;BME280;11256;50.830;12.834;2022-07-23T12:56:32;97790.94;;;29.90;44.03
22181;BME280;11256;50.830;12.834;2022-07-23T13:01:35;97786.88;;;30.09;43.98
22181;BME280;11256;50.830;12.834;2022-07-23T13:06:44;97787.66;;;30.20;43.57
22181;BME280;11256;50.830;12.834;2022-07-23T13:11:45;97794.00;;;30.31;43.48
22181;BME280;11256;50.830;12.834;2022-07-23T13:16:47;97803.88;;;30.53;42.93
22181;BME280;11256;50.830;12.834;2022-07-23T13:21:48;97801.03;;;30.60;42.67
22181;BME280;11256;50.830;12.834;2022-07-23T13:26:49;97790.63;;;30.64;42.84
22181;BME280;11256;50.830;12.834;2022-07-23T13:31:50;97797.00;;;30.71;42.31
22181;BME280;11256;50.830;12.834;2022-07-23T13:36:51;97802.47;;;30.92;42.40
22181;BME280;11256;50.830;12.834;2022-07-23T13:41:51;97786.03;;;30.98;42.26
22181;BME280;11256;50.830;12.834;2022-07-23T13:46:51;97792.50;;;30.91;42.01
22181;BME280;11256;50.830;12.834;2022-07-23T13:51:52;97793.06;;;31.20;42.15
22181;BME280;11256;50.830;12.834;2022-07-23T13:56:52;97806.16;;;31.33;42.03
22181;BME280;11256;50.830;12.834;2022-07-23T14:01:53;97795.69;;;31.41;41.34
22181;BME280;11256;50.830;12.834;2022-07-23T14:06:54;97789.31;;;31.40;41.19
22181;BME280;11256;50.830;12.834;2022-07-23T14:11:54;97793.41;;;31.29;40.80
22181;BME280;11256;50.830;12.834;2022-07-23T14:16:55;97806.53;;;31.39;40.93
22181;BME280;11256;50.830;12.834;2022-07-23T14:21:56;97803.59;;;31.53;40.94
22181;BME280;11256;50.830;12.834;2022-07-23T14:26:56;97805.03;;;31.68;40.54
22181;BME280;11256;50.830;12.834;2022-07-23T14:31:57;97799.34;;;31.82;40.13
22181;BME280;11256;50.830;12.834;2022-07-23T14:36:58;97798.38;;;31.95;40.27
22181;BME280;11256;50.830;12.834;2022-07-23T14:41:59;97794.41;;;31.93;40.02
22181;BME280;11256;50.830;12.834;2022-07-23T14:47:00;97815.25;;;31.92;39.58
22181;BME280;11256;50.830;12.834;2022-07-23T14:52:01;97808.25;;;31.73;39.97
22181;BME280;11256;50.830;12.834;2022-07-23T14:57:02;97805.91;;;31.61;39.82
22181;BME280;11256;50.830;12.834;2022-07-23T15:02:04;97811.63;;;31.51;39.65
22181;BME280;11256;50.830;12.834;2022-07-23T15:07:05;97816.53;;;31.40;40.18
22181;BME280;11256;50.830;12.834;2022-07-23T15:12:05;97798.50;;;31.41;39.69
22181;BME280;11256;50.830;12.834;2022-07-23T15:17:06;97800.53;;;31.37;40.09
22181;BME280;11256;50.830;12.834;2022-07-23T15:22:06;97804.53;;;31.36;40.01
22181;BME280;11256;50.830;12.834;2022-07-23T15:27:06;97808.63;;;31.28;39.60
22181;BME280;11256;50.830;12.834;2022-07-23T15:32:07;97803.88;;;31.18;39.41
22181;BME280;11256;50.830;12.834;2022-07-23T15:37:07;97793.63;;;30.97;39.90
22181;BME280;11256;50.830;12.834;2022-07-23T15:42:07;97812.09;;;30.91;39.64
22181;BME280;11256;50.830;12.834;2022-07-23T15:47:12;97814.56;;;30.79;40.12
22181;BME280;11256;50.830;12.834;2022-07-23T15:52:13;97806.16;;;30.79;39.96
22181;BME280;11256;50.830;12.834;2022-07-23T15:57:13;97801.75;;;30.81;40.06
22181;BME280;11256;50.830;12.834;2022-07-23T16:02:14;97806.13;;;30.86;39.80
22181;BME280;11256;50.830;12.834;2022-07-23T16:07:17;97792.16;;;30.79;39.56
22181;BME280;11256;50.830;12.834;2022-07-23T16:12:17;97796.94;;;30.82;39.54
22181;BME280;11256;50.830;12.834;2022-07-23T16:17:17;97796.59;;;30.76;39.65
22181;BME280;11256;50.830;12.834;2022-07-23T16:22:18;97790.97;;;30.80;39.48
22181;BME280;11256;50.830;12.834;2022-07-23T16:27:18;97792.22;;;30.72;39.33
22181;BME280;11256;50.830;12.834;2022-07-23T16:32:18;97794.25;;;30.64;38.99
22181;BME280;11256;50.830;12.834;2022-07-23T16:37:19;97782.63;;;30.62;39.35
22181;BME280;11256;50.830;12.834;2022-07-23T16:42:19;97787.53;;;30.44;38.84
22181;BME280;11256;50.830;12.834;2022-07-23T16:47:19;97790.81;;;30.32;38.94
22181;BME280;11256;50.830;12.834;2022-07-23T16:52:20;97796.44;;;30.22;39.03
22181;BME280;11256;50.830;12.834;2022-07-23T16:57:21;97787.31;;;30.04;38.56
22181;BME280;11256;50.830;12.834;2022-07-23T17:02:22;97805.31;;;29.96;38.44
22181;BME280;11256;50.830;12.834;2022-07-23T17:07:25;97810.56;;;29.80;38.60
22181;BME280;11256;50.830;12.834;2022-07-23T17:12:26;97808.97;;;29.68;38.97
22181;BME280;11256;50.830;12.834;2022-07-23T17:17:27;97807.41;;;29.60;39.15
22181;BME280;11256;50.830;12.834;2022-07-23T17:22:27;97802.19;;;29.45;39.59
22181;BME280;11256;50.830;12.834;2022-07-23T17:27:28;97805.38;;;29.40;39.37
22181;BME280;11256;50.830;12.834;2022-07-23T17:32:28;97803.81;;;29.28;39.65
22181;BME280;11256;50.830;12.834;2022-07-23T17:37:28;97804.59;;;29.15;40.17
22181;BME280;11256;50.830;12.834;2022-07-23T17:42:29;97821.38;;;29.11;39.94
22181;BME280;11256;50.830;12.834;2022-07-23T17:47:29;97820.94;;;28.99;40.10
22181;BME280;11256;50.830;12.834;2022-07-23T17:52:29;97816.50;;;28.91;40.23
22181;BME280;11256;50.830;12.834;2022-07-23T17:57:30;97831.66;;;28.86;40.23
22181;BME280;11256;50.830;12.834;2022-07-23T18:02:30;97824.47;;;28.78;39.87
22181;BME280;11256;50.830;12.834;2022-07-23T18:07:30;97834.84;;;28.71;40.15
22181;BME280;11256;50.830;12.834;2022-07-23T18:12:31;97828.44;;;28.60;40.20
22181;BME280;11256;50.830;12.834;2022-07-23T18:17:32;97832.38;;;28.55;40.40
22181;BME280;11256;50.830;12.834;2022-07-23T18:22:32;97832.34;;;28.41;40.40
22181;BME280;11256;50.830;12.834;2022-07-23T18:27:58;97823.50;;;28.29;40.56
22181;BME280;11256;50.830;12.834;2022-07-23T18:33:00;97830.66;;;28.26;40.67
22181;BME280;11256;50.830;12.834;2022-07-23T18:38:01;97821.78;;;28.00;41.02
22181;BME280;11256;50.830;12.834;2022-07-23T18:43:01;97844.13;;;28.07;41.14
22181;BME280;11256;50.830;12.834;2022-07-23T18:48:02;97844.84;;;27.97;41.33
22181;BME280;11256;50.830;12.834;2022-07-23T18:53:03;97843.19;;;27.85;41.47
22181;BME280;11256;50.830;12.834;2022-07-23T18:58:04;97854.25;;;27.75;41.68
22181;BME280;11256;50.830;12.834;2022-07-23T19:03:05;97858.50;;;27.58;41.97
22181;BME280;11256;50.830;12.834;2022-07-23T19:08:06;97867.19;;;27.50;41.94
22181;BME280;11256;50.830;12.834;2022-07-23T19:13:07;97864.31;;;27.36;42.12
22181;BME280;11256;50.830;12.834;2022-07-23T19:18:08;97873.75;;;27.24;42.28
22181;BME280;11256;50.830;12.834;2022-07-23T19:23:08;97879.53;;;27.09;42.50
22181;BME280;11256;50.830;12.834;2022-07-23T19:28:08;97897.69;;;26.96;42.54
22181;BME280;11256;50.830;12.834;2022-07-23T19:33:09;97899.53;;;26.81;43.14
22181;BME280;11256;50.830;12.834;2022-07-23T19:38:09;97908.94;;;26.70;43.39
22181;BME280;11256;50.830;12.834;2022-07-23T19:43:10;97917.91;;;26.56;43.26
22181;BME280;11256;50.830;12.834;2022-07-23T19:48:10;97924.81;;;26.40;43.36
22181;BME280;11256;50.830;12.834;2022-07-23T19:53:10;97923.47;;;26.27;43.64
22181;BME280;11256;50.830;12.834;2022-07-23T19:58:11;97920.84;;;26.11;43.89
22181;BME280;11256;50.830;12.834;2022-07-23T20:03:11;97934.97;;;25.99;44.05
22181;BME280;11256;50.830;12.834;2022-07-23T20:08:12;97935.97;;;25.88;44.02
22181;BME280;11256;50.830;12.834;2022-07-23T20:13:12;97939.69;;;25.73;44.18
22181;BME280;11256;50.830;12.834;2022-07-23T20:18:13;97933.47;;;25.57;44.94
22181;BME280;11256;50.830;12.834;2022-07-23T20:23:14;97938.97;;;25.53;44.69
22181;BME280;11256;50.830;12.834;2022-07-23T20:28:14;97948.72;;;25.44;44.57
22181;BME280;11256;50.830;12.834;2022-07-23T20:33:17;97952.13;;;25.34;44.51
22181;BME280;11256;50.830;12.834;2022-07-23T20:38:17;97961.75;;;25.21;44.93
22181;BME280;11256;50.830;12.834;2022-07-23T20:43:18;97958.72;;;25.07;45.34
22181;BME280;11256;50.830;12.834;2022-07-23T20:48:18;97961.81;;;25.02;45.40
22181;BME280;11256;50.830;12.834;2022-07-23T20:53:19;97981.50;;;24.97;45.78
22181;BME280;11256;50.830;12.834;2022-07-23T20:58:19;97990.41;;;24.87;45.43
22181;BME280;11256;50.830;12.834;2022-07-23T21:03:20;97989.81;;;24.78;45.79
22181;BME280;11256;50.830;12.834;2022-07-23T21:08:20;97995.16;;;24.67;45.58
22181;BME280;11256;50.830;12.834;2022-07-23T21:13:21;97997.34;;;24.58;45.89
22181;BME280;11256;50.830;12.834;2022-07-23T21:18:21;97993.06;;;24.45;45.98
22181;BME280;11256;50.830;12.834;2022-07-23T21:23:22;97988.03;;;24.32;46.44
22181;BME280;11256;50.830;12.834;2022-07-23T21:28:22;97995.28;;;24.21;46.71
22181;BME280;11256;50.830;12.834;2022-07-23T21:33:22;97980.16;;;23.99;47.02
22181;BME280;11256;50.830;12.834;2022-07-23T21:38:23;98007.28;;;24.09;46.53
22181;BME280;11256;50.830;12.834;2022-07-23T21:43:23;98011.34;;;23.96;46.72
22181;BME280;11256;50.830;12.834;2022-07-23T21:48:23;98007.59;;;23.89;46.85
22181;BME280;11256;50.830;12.834;2022-07-23T21:53:24;98013.38;;;23.84;46.81
22181;BME280;11256;50.830;12.834;2022-07-23T21:58:24;98019.09;;;23.75;46.95
22181;BME280;11256;50.830;12.834;2022-07-23T22:03:25;98021.34;;;23.70;47.03
22181;BME280;11256;50.830;12.834;2022-07-23T22:08:25;98017.94;;;23.61;46.81
22181;BME280;11256;50.830;12.834;2022-07-23T22:13:25;98015.34;;;23.52;46.77
22181;BME280;11256;50.830;12.834;2022-07-23T22:18:26;98025.41;;;23.45;47.05
22181;BME280;11256;50.830;12.834;2022-07-23T22:23:26;98020.56;;;23.26;46.76
22181;BME280;11256;50.830;12.834;2022-07-23T22:28:26;98030.16;;;23.17;46.79
22181;BME280;11256;50.830;12.834;2022-07-23T22:33:27;98024.19;;;23.15;46.96
22181;BME280;11256;50.830;12.834;2022-07-23T22:38:27;98030.66;;;23.07;46.90
22181;BME280;11256;50.830;12.834;2022-07-23T22:43:27;98039.22;;;23.02;47.36
22181;BME280;11256;50.830;12.834;2022-07-23T22:48:27;98035.78;;;22.93;47.31
22181;BME280;11256;50.830;12.834;2022-07-23T22:53:28;98033.16;;;22.84;47.58
22181;BME280;11256;50.830;12.834;2022-07-23T22:58:28;98032.88;;;22.74;47.60
22181;BME280;11256;50.830;12.834;2022-07-23T23:03:28;98039.34;;;22.66;47.62
22181;BME280;11256;50.830;12.834;2022-07-23T23:08:29;98043.03;;;22.58;48.02
22181;BME280;11256;50.830;12.834;2022-07-23T23:13:29;98042.75;;;22.47;48.10
22181;BME280;11256;50.830;12.834;2022-07-23T23:18:29;98038.00;;;22.36;47.95
22181;BME280;11256;50.830;12.834;2022-07-23T23:23:30;98042.50;;;22.28;47.97
22181;BME280;11256;50.830;12.834;2022-07-23T23:28:30;98043.66;;;22.15;48.12
22181;BME280;11256;50.830;12.834;2022-07-23T23:33:30;98052.19;;;22.10;48.09
22181;BME280;11256;50.830;12.834;2022-07-23T23:38:31;98050.69;;;22.01;48.29
22181;BME280;11256;50.830;12.834;2022-07-23T23:43:31;98051.59;;;21.93;48.60
22181;BME280;11256;50.830;12.834;2022-07-23T23:48:31;98047.00;;;21.85;48.48
22181;BME280;11256;50.830;12.834;2022-07-23T23:53:32;98041.47;;;21.73;48.35
22181;BME280;11256;50.830;12.834;2022-07-23T23:58:32;98046.72;;;21.66;48.47
